sensor_id;sensor_type;location;lat;lon;timestamp;P1;durP1;ratioP1;P2;durP2;ratioP2
13208;SDS011;6669;42.678;23.332;2022-10-18T00:00:57;8.37;;;6.30;;
13208;SDS011;6669;42.678;23.332;2022-10-18T00:03:25;7.90;;;5.90;;
13208;SDS011;6669;42.678;23.332;2022-10-18T00:05:53;8.90;;;6.10;;
13208;SDS011;6669;42.678;23.332;2022-10-18T00:08:21;8.87;;;5.93;;
13208;SDS011;6669;42.678;23.332;2022-10-18T00:10:49;7.93;;;6.50;;
13208;SDS011;6669;42.678;23.332;2022-10-18T00:13:18;10.77;;;6.60;;
13208;SDS011;6669;42.678;23.332;2022-10-18T00:15:48;9.90;;;6.07;;
13208;SDS011;6669;42.678;23.332;2022-10-18T00:18:17;13.17;;;9.23;;
13208;SDS011;6669;42.678;23.332;2022-10-18T00:20:46;8.83;;;6.63;;
13208;SDS011;6669;42.678;23.332;2022-10-18T00:23:23;7.97;;;6.63;;
13208;SDS011;6669;42.678;23.332;2022-10-18T00:25:58;13.50;;;9.33;;
13208;SDS011;6669;42.678;23.332;2022-10-18T00:28:31;10.93;;;7.57;;
13208;SDS011;6669;42.678;23.332;2022-10-18T00:31:09;9.97;;;8.00;;
13208;SDS011;6669;42.678;23.332;2022-10-18T00:33:38;8.47;;;7.03;;
13208;SDS011;6669;42.678;23.332;2022-10-18T00:36:07;9.20;;;7.10;;
13208;SDS011;6669;42.678;23.332;2022-10-18T00:38:35;10.03;;;7.57;;
13208;SDS011;6669;42.678;23.332;2022-10-18T00:41:05;12.70;;;8.30;;
13208;SDS011;6669;42.678;23.332;2022-10-18T00:43:52;8.40;;;6.70;;
13208;SDS011;6669;42.678;23.332;2022-10-18T00:46:23;13.53;;;8.10;;
13208;SDS011;6669;42.678;23.332;2022-10-18T00:48:53;12.60;;;7.80;;
13208;SDS011;6669;42.678;23.332;2022-10-18T00:51:23;9.23;;;7.50;;
13208;SDS011;6669;42.678;23.332;2022-10-18T00:53:54;11.10;;;7.83;;
13208;SDS011;6669;42.678;23.332;2022-10-18T00:56:22;9.90;;;8.27;;
13208;SDS011;6669;42.678;23.332;2022-10-18T00:58:50;10.87;;;7.97;;
13208;SDS011;6669;42.678;23.332;2022-10-18T01:01:18;9.97;;;7.33;;
13208;SDS011;6669;42.678;23.332;2022-10-18T01:03:54;10.37;;;7.70;;
13208;SDS011;6669;42.678;23.332;2022-10-18T01:06:23;9.90;;;8.23;;
13208;SDS011;6669;42.678;23.332;2022-10-18T01:09:04;11.93;;;8.17;;
13208;SDS011;6669;42.678;23.332;2022-10-18T01:11:45;11.83;;;8.13;;
13208;SDS011;6669;42.678;23.332;2022-10-18T01:14:26;9.50;;;7.20;;
13208;SDS011;6669;42.678;23.332;2022-10-18T01:17:05;10.27;;;7.67;;
13208;SDS011;6669;42.678;23.332;2022-10-18T01:22:59;11.93;;;7.47;;
13208;SDS011;6669;42.678;23.332;2022-10-18T01:25:35;9.67;;;7.40;;
13208;SDS011;6669;42.678;23.332;2022-10-18T01:28:14;9.07;;;6.50;;
13208;SDS011;6669;42.678;23.332;2022-10-18T01:30:58;9.40;;;7.20;;
13208;SDS011;6669;42.678;23.332;2022-10-18T01:33:30;9.77;;;7.10;;
13208;SDS011;6669;42.678;23.332;2022-10-18T01:36:05;7.23;;;6.03;;
13208;SDS011;6669;42.678;23.332;2022-10-18T01:38:40;7.37;;;6.33;;
13208;SDS011;6669;42.678;23.332;2022-10-18T01:41:10;8.63;;;7.10;;
13208;SDS011;6669;42.678;23.332;2022-10-18T01:43:41;6.83;;;6.13;;
13208;SDS011;6669;42.678;23.332;2022-10-18T01:46:13;8.80;;;5.73;;
13208;SDS011;6669;42.678;23.332;2022-10-18T01:48:46;6.93;;;5.63;;
13208;SDS011;6669;42.678;23.332;2022-10-18T01:51:17;8.67;;;5.90;;
13208;SDS011;6669;42.678;23.332;2022-10-18T01:53:46;7.07;;;5.80;;
13208;SDS011;6669;42.678;23.332;2022-10-18T01:56:19;7.17;;;5.67;;
13208;SDS011;6669;42.678;23.332;2022-10-18T01:58:57;7.00;;;5.07;;
13208;SDS011;6669;42.678;23.332;2022-10-18T02:01:38;7.83;;;4.30;;
13208;SDS011;6669;42.678;23.332;2022-10-18T02:04:17;5.93;;;4.47;;
13208;SDS011;6669;42.678;23.332;2022-10-18T02:06:56;6.37;;;4.93;;
13208;SDS011;6669;42.678;23.332;2022-10-18T02:09:32;7.97;;;4.73;;
13208;SDS011;6669;42.678;23.332;2022-10-18T02:12:05;5.93;;;4.60;;
13208;SDS011;6669;42.678;23.332;2022-10-18T02:14:37;5.33;;;4.20;;
13208;SDS011;6669;42.678;23.332;2022-10-18T02:17:09;6.43;;;4.40;;
13208;SDS011;6669;42.678;23.332;2022-10-18T02:19:39;5.30;;;3.60;;
13208;SDS011;6669;42.678;23.332;2022-10-18T02:22:09;5.67;;;3.97;;
13208;SDS011;6669;42.678;23.332;2022-10-18T02:24:40;6.83;;;3.70;;
13208;SDS011;6669;42.678;23.332;2022-10-18T02:27:12;5.13;;;3.87;;
13208;SDS011;6669;42.678;23.332;2022-10-18T02:29:40;4.53;;;3.70;;
13208;SDS011;6669;42.678;23.332;2022-10-18T02:32:13;4.60;;;3.90;;
13208;SDS011;6669;42.678;23.332;2022-10-18T02:34:46;4.63;;;3.47;;
13208;SDS011;6669;42.678;23.332;2022-10-18T02:37:19;4.20;;;3.70;;
13208;SDS011;6669;42.678;23.332;2022-10-18T02:39:48;3.80;;;3.40;;
13208;SDS011;6669;42.678;23.332;2022-10-18T02:42:17;3.87;;;3.40;;
13208;SDS011;6669;42.678;23.332;2022-10-18T02:44:45;5.17;;;4.00;;
13208;SDS011;6669;42.678;23.332;2022-10-18T02:47:15;6.17;;;3.73;;
13208;SDS011;6669;42.678;23.332;2022-10-18T02:49:43;4.30;;;3.70;;
13208;SDS011;6669;42.678;23.332;2022-10-18T02:52:10;4.63;;;3.80;;
13208;SDS011;6669;42.678;23.332;2022-10-18T02:54:38;4.20;;;3.80;;
13208;SDS011;6669;42.678;23.332;2022-10-18T02:57:06;4.27;;;3.87;;
13208;SDS011;6669;42.678;23.332;2022-10-18T02:59:34;4.00;;;3.60;;
13208;SDS011;6669;42.678;23.332;2022-10-18T03:02:03;4.23;;;3.83;;
13208;SDS011;6669;42.678;23.332;2022-10-18T03:04:32;4.93;;;3.40;;
13208;SDS011;6669;42.678;23.332;2022-10-18T03:07:00;4.13;;;3.57;;
13208;SDS011;6669;42.678;23.332;2022-10-18T03:09:28;4.60;;;3.50;;
13208;SDS011;6669;42.678;23.332;2022-10-18T03:11:56;5.43;;;3.73;;
13208;SDS011;6669;42.678;23.332;2022-10-18T03:14:24;5.83;;;3.77;;
13208;SDS011;6669;42.678;23.332;2022-10-18T03:16:52;6.43;;;3.40;;
13208;SDS011;6669;42.678;23.332;2022-10-18T03:19:20;3.50;;;3.17;;
13208;SDS011;6669;42.678;23.332;2022-10-18T03:21:49;3.87;;;3.47;;
13208;SDS011;6669;42.678;23.332;2022-10-18T03:24:17;4.40;;;4.00;;
13208;SDS011;6669;42.678;23.332;2022-10-18T03:26:45;3.27;;;2.97;;
13208;SDS011;6669;42.678;23.332;2022-10-18T03:29:13;3.67;;;3.20;;
13208;SDS011;6669;42.678;23.332;2022-10-18T03:31:41;6.27;;;3.57;;
13208;SDS011;6669;42.678;23.332;2022-10-18T03:34:09;4.27;;;3.43;;
13208;SDS011;6669;42.678;23.332;2022-10-18T03:36:36;4.93;;;3.90;;
13208;SDS011;6669;42.678;23.332;2022-10-18T03:39:08;4.40;;;3.50;;
13208;SDS011;6669;42.678;23.332;2022-10-18T03:41:37;5.60;;;3.30;;
13208;SDS011;6669;42.678;23.332;2022-10-18T03:44:05;5.90;;;4.13;;
13208;SDS011;6669;42.678;23.332;2022-10-18T03:46:33;4.10;;;3.63;;
13208;SDS011;6669;42.678;23.332;2022-10-18T03:49:01;4.43;;;3.40;;
13208;SDS011;6669;42.678;23.332;2022-10-18T03:51:30;6.07;;;3.80;;
13208;SDS011;6669;42.678;23.332;2022-10-18T03:53:58;3.90;;;3.40;;
13208;SDS011;6669;42.678;23.332;2022-10-18T03:56:27;4.57;;;3.60;;
13208;SDS011;6669;42.678;23.332;2022-10-18T03:58:55;6.40;;;3.37;;
13208;SDS011;6669;42.678;23.332;2022-10-18T04:01:23;6.00;;;3.93;;
13208;SDS011;6669;42.678;23.332;2022-10-18T04:03:51;5.07;;;3.60;;
13208;SDS011;6669;42.678;23.332;2022-10-18T04:06:19;5.27;;;3.90;;
13208;SDS011;6669;42.678;23.332;2022-10-18T04:08:47;4.93;;;3.97;;
13208;SDS011;6669;42.678;23.332;2022-10-18T04:11:15;4.17;;;3.37;;
13208;SDS011;6669;42.678;23.332;2022-10-18T04:13:44;3.90;;;3.10;;
13208;SDS011;6669;42.678;23.332;2022-10-18T04:16:12;4.47;;;3.30;;
13208;SDS011;6669;42.678;23.332;2022-10-18T04:18:40;5.37;;;4.00;;
13208;SDS011;6669;42.678;23.332;2022-10-18T04:21:08;6.03;;;3.90;;
13208;SDS011;6669;42.678;23.332;2022-10-18T04:23:36;3.87;;;3.47;;
13208;SDS011;6669;42.678;23.332;2022-10-18T04:26:04;5.17;;;3.90;;
13208;SDS011;6669;42.678;23.332;2022-10-18T04:28:32;4.67;;;3.43;;
13208;SDS011;6669;42.678;23.332;2022-10-18T04:31:06;5.17;;;4.10;;
13208;SDS011;6669;42.678;23.332;2022-10-18T04:33:35;4.53;;;3.80;;
13208;SDS011;6669;42.678;23.332;2022-10-18T04:36:03;4.40;;;3.93;;
13208;SDS011;6669;42.678;23.332;2022-10-18T04:38:31;5.17;;;4.10;;
13208;SDS011;6669;42.678;23.332;2022-10-18T04:40:59;4.27;;;3.60;;
13208;SDS011;6669;42.678;23.332;2022-10-18T04:43:27;4.27;;;3.87;;
13208;SDS011;6669;42.678;23.332;2022-10-18T04:45:55;3.37;;;3.00;;
13208;SDS011;6669;42.678;23.332;2022-10-18T04:48:24;5.60;;;3.90;;
13208;SDS011;6669;42.678;23.332;2022-10-18T04:51:06;5.33;;;4.27;;
13208;SDS011;6669;42.678;23.332;2022-10-18T04:53:34;4.60;;;3.80;;
13208;SDS011;6669;42.678;23.332;2022-10-18T04:56:04;5.23;;;4.00;;
13208;SDS011;6669;42.678;23.332;2022-10-18T04:58:32;4.97;;;4.13;;
13208;SDS011;6669;42.678;23.332;2022-10-18T05:01:03;4.40;;;3.67;;
13208;SDS011;6669;42.678;23.332;2022-10-18T05:03:33;5.63;;;4.20;;
13208;SDS011;6669;42.678;23.332;2022-10-18T05:06:01;5.70;;;4.07;;
13208;SDS011;6669;42.678;23.332;2022-10-18T05:08:29;4.93;;;4.20;;
13208;SDS011;6669;42.678;23.332;2022-10-18T05:10:58;5.60;;;4.50;;
13208;SDS011;6669;42.678;23.332;2022-10-18T05:13:27;6.40;;;4.43;;
13208;SDS011;6669;42.678;23.332;2022-10-18T05:15:57;27.47;;;22.03;;
13208;SDS011;6669;42.678;23.332;2022-10-18T05:18:26;6.10;;;4.40;;
13208;SDS011;6669;42.678;23.332;2022-10-18T05:20:56;5.73;;;4.00;;
13208;SDS011;6669;42.678;23.332;2022-10-18T05:23:24;5.50;;;4.00;;
13208;SDS011;6669;42.678;23.332;2022-10-18T05:25:52;5.63;;;4.07;;
13208;SDS011;6669;42.678;23.332;2022-10-18T05:28:20;5.27;;;3.80;;
13208;SDS011;6669;42.678;23.332;2022-10-18T05:31:07;4.93;;;3.70;;
13208;SDS011;6669;42.678;23.332;2022-10-18T05:33:37;5.27;;;3.73;;
13208;SDS011;6669;42.678;23.332;2022-10-18T05:36:07;4.60;;;4.03;;
13208;SDS011;6669;42.678;23.332;2022-10-18T05:38:37;4.37;;;3.83;;
13208;SDS011;6669;42.678;23.332;2022-10-18T05:41:07;5.27;;;4.00;;
13208;SDS011;6669;42.678;23.332;2022-10-18T05:43:36;5.83;;;4.13;;
13208;SDS011;6669;42.678;23.332;2022-10-18T05:46:05;5.20;;;4.40;;
13208;SDS011;6669;42.678;23.332;2022-10-18T05:48:40;4.13;;;3.73;;
13208;SDS011;6669;42.678;23.332;2022-10-18T05:51:10;5.10;;;4.50;;
13208;SDS011;6669;42.678;23.332;2022-10-18T05:53:38;4.63;;;4.10;;
13208;SDS011;6669;42.678;23.332;2022-10-18T05:56:06;4.47;;;3.70;;
13208;SDS011;6669;42.678;23.332;2022-10-18T05:58:37;6.20;;;4.70;;
13208;SDS011;6669;42.678;23.332;2022-10-18T06:01:06;5.13;;;4.43;;
13208;SDS011;6669;42.678;23.332;2022-10-18T06:03:34;5.37;;;4.13;;
13208;SDS011;6669;42.678;23.332;2022-10-18T06:06:03;6.33;;;4.33;;
13208;SDS011;6669;42.678;23.332;2022-10-18T06:08:34;6.17;;;4.70;;
13208;SDS011;6669;42.678;23.332;2022-10-18T06:11:05;5.57;;;4.60;;
13208;SDS011;6669;42.678;23.332;2022-10-18T06:13:33;5.67;;;4.57;;
13208;SDS011;6669;42.678;23.332;2022-10-18T06:16:06;5.57;;;4.70;;
13208;SDS011;6669;42.678;23.332;2022-10-18T06:18:34;5.77;;;4.43;;
13208;SDS011;6669;42.678;23.332;2022-10-18T06:21:02;7.83;;;4.97;;
13208;SDS011;6669;42.678;23.332;2022-10-18T06:23:30;9.37;;;5.90;;
13208;SDS011;6669;42.678;23.332;2022-10-18T06:26:00;6.03;;;4.90;;
13208;SDS011;6669;42.678;23.332;2022-10-18T06:28:32;5.37;;;4.20;;
13208;SDS011;6669;42.678;23.332;2022-10-18T06:31:01;9.07;;;5.07;;
13208;SDS011;6669;42.678;23.332;2022-10-18T06:33:30;7.53;;;5.47;;
13208;SDS011;6669;42.678;23.332;2022-10-18T06:36:00;5.40;;;4.37;;
13208;SDS011;6669;42.678;23.332;2022-10-18T06:38:29;8.10;;;4.93;;
13208;SDS011;6669;42.678;23.332;2022-10-18T06:40:57;8.10;;;5.30;;
13208;SDS011;6669;42.678;23.332;2022-10-18T06:43:27;9.93;;;5.60;;
13208;SDS011;6669;42.678;23.332;2022-10-18T06:45:55;9.00;;;6.10;;
13208;SDS011;6669;42.678;23.332;2022-10-18T06:48:23;7.27;;;5.60;;
13208;SDS011;6669;42.678;23.332;2022-10-18T06:50:52;6.37;;;5.50;;
13208;SDS011;6669;42.678;23.332;2022-10-18T06:53:23;7.43;;;5.70;;
13208;SDS011;6669;42.678;23.332;2022-10-18T06:55:57;7.80;;;6.03;;
13208;SDS011;6669;42.678;23.332;2022-10-18T06:58:27;8.00;;;6.17;;
13208;SDS011;6669;42.678;23.332;2022-10-18T07:00:56;9.10;;;5.70;;
13208;SDS011;6669;42.678;23.332;2022-10-18T07:03:25;7.03;;;6.27;;
13208;SDS011;6669;42.678;23.332;2022-10-18T07:05:53;8.57;;;6.37;;
13208;SDS011;6669;42.678;23.332;2022-10-18T07:08:21;8.87;;;6.40;;
13208;SDS011;6669;42.678;23.332;2022-10-18T07:10:49;9.03;;;6.03;;
13208;SDS011;6669;42.678;23.332;2022-10-18T07:13:18;7.40;;;5.77;;
13208;SDS011;6669;42.678;23.332;2022-10-18T07:16:03;10.77;;;6.23;;
13208;SDS011;6669;42.678;23.332;2022-10-18T07:18:32;6.83;;;5.67;;
13208;SDS011;6669;42.678;23.332;2022-10-18T07:21:01;8.23;;;5.77;;
13208;SDS011;6669;42.678;23.332;2022-10-18T07:23:31;9.77;;;6.13;;
13208;SDS011;6669;42.678;23.332;2022-10-18T07:26:00;8.87;;;6.90;;
13208;SDS011;6669;42.678;23.332;2022-10-18T07:28:29;9.43;;;6.13;;
13208;SDS011;6669;42.678;23.332;2022-10-18T07:31:04;9.50;;;6.00;;
13208;SDS011;6669;42.678;23.332;2022-10-18T07:33:33;8.40;;;5.93;;
13208;SDS011;6669;42.678;23.332;2022-10-18T07:36:03;9.07;;;6.73;;
13208;SDS011;6669;42.678;23.332;2022-10-18T07:38:34;10.50;;;6.77;;
13208;SDS011;6669;42.678;23.332;2022-10-18T07:41:03;29.23;;;14.40;;
13208;SDS011;6669;42.678;23.332;2022-10-18T07:43:33;8.73;;;7.13;;
13208;SDS011;6669;42.678;23.332;2022-10-18T07:46:02;30.90;;;12.70;;
13208;SDS011;6669;42.678;23.332;2022-10-18T07:48:32;11.97;;;7.30;;
13208;SDS011;6669;42.678;23.332;2022-10-18T07:51:00;8.07;;;6.23;;
13208;SDS011;6669;42.678;23.332;2022-10-18T07:53:31;12.17;;;6.80;;
13208;SDS011;6669;42.678;23.332;2022-10-18T07:56:00;8.20;;;5.77;;
13208;SDS011;6669;42.678;23.332;2022-10-18T07:58:34;6.53;;;5.63;;
13208;SDS011;6669;42.678;23.332;2022-10-18T08:01:04;11.33;;;6.37;;
13208;SDS011;6669;42.678;23.332;2022-10-18T08:03:33;8.17;;;6.20;;
13208;SDS011;6669;42.678;23.332;2022-10-18T08:06:03;8.17;;;5.97;;
13208;SDS011;6669;42.678;23.332;2022-10-18T08:08:34;8.30;;;6.57;;
13208;SDS011;6669;42.678;23.332;2022-10-18T08:11:04;9.07;;;7.13;;
13208;SDS011;6669;42.678;23.332;2022-10-18T08:13:34;11.87;;;6.83;;
13208;SDS011;6669;42.678;23.332;2022-10-18T08:16:04;8.23;;;6.47;;
13208;SDS011;6669;42.678;23.332;2022-10-18T08:18:34;7.50;;;6.33;;
13208;SDS011;6669;42.678;23.332;2022-10-18T08:21:03;12.47;;;7.27;;
13208;SDS011;6669;42.678;23.332;2022-10-18T08:23:33;10.00;;;8.13;;
13208;SDS011;6669;42.678;23.332;2022-10-18T08:26:01;11.53;;;7.50;;
13208;SDS011;6669;42.678;23.332;2022-10-18T08:28:30;9.13;;;7.40;;
13208;SDS011;6669;42.678;23.332;2022-10-18T08:31:02;12.67;;;6.93;;
13208;SDS011;6669;42.678;23.332;2022-10-18T08:33:32;10.20;;;6.70;;
13208;SDS011;6669;42.678;23.332;2022-10-18T08:36:02;8.27;;;6.63;;
13208;SDS011;6669;42.678;23.332;2022-10-18T08:38:32;8.00;;;6.43;;
13208;SDS011;6669;42.678;23.332;2022-10-18T08:41:01;8.57;;;6.63;;
13208;SDS011;6669;42.678;23.332;2022-10-18T08:43:46;8.77;;;6.93;;
13208;SDS011;6669;42.678;23.332;2022-10-18T08:46:24;12.27;;;7.33;;
13208;SDS011;6669;42.678;23.332;2022-10-18T08:48:52;11.87;;;6.83;;
13208;SDS011;6669;42.678;23.332;2022-10-18T08:51:26;9.20;;;7.13;;
13208;SDS011;6669;42.678;23.332;2022-10-18T08:54:02;11.15;;;8.35;;
13208;SDS011;6669;42.678;23.332;2022-10-18T08:56:33;9.77;;;6.83;;
13208;SDS011;6669;42.678;23.332;2022-10-18T08:59:01;9.35;;;6.55;;
13208;SDS011;6669;42.678;23.332;2022-10-18T09:01:34;5.75;;;5.15;;
13208;SDS011;6669;42.678;23.332;2022-10-18T09:07:12;5.80;;;5.17;;
13208;SDS011;6669;42.678;23.332;2022-10-18T09:09:54;7.47;;;5.55;;
13208;SDS011;6669;42.678;23.332;2022-10-18T09:12:33;6.93;;;5.25;;
13208;SDS011;6669;42.678;23.332;2022-10-18T09:15:18;5.80;;;5.07;;
13208;SDS011;6669;42.678;23.332;2022-10-18T09:18:00;7.72;;;5.47;;
13208;SDS011;6669;42.678;23.332;2022-10-18T09:20:44;7.90;;;5.55;;
13208;SDS011;6669;42.678;23.332;2022-10-18T09:23:17;7.18;;;5.80;;
13208;SDS011;6669;42.678;23.332;2022-10-18T09:25:49;7.80;;;5.68;;
13208;SDS011;6669;42.678;23.332;2022-10-18T09:28:25;11.73;;;10.07;;
13208;SDS011;6669;42.678;23.332;2022-10-18T09:31:04;8.77;;;5.75;;
13208;SDS011;6669;42.678;23.332;2022-10-18T09:33:45;7.05;;;5.05;;
13208;SDS011;6669;42.678;23.332;2022-10-18T09:36:20;6.35;;;5.30;;
13208;SDS011;6669;42.678;23.332;2022-10-18T09:38:51;7.65;;;5.40;;
13208;SDS011;6669;42.678;23.332;2022-10-18T09:41:26;7.43;;;4.78;;
13208;SDS011;6669;42.678;23.332;2022-10-18T09:44:00;4.82;;;4.30;;
13208;SDS011;6669;42.678;23.332;2022-10-18T09:46:38;5.60;;;4.55;;
13208;SDS011;6669;42.678;23.332;2022-10-18T09:49:12;5.47;;;4.60;;
13208;SDS011;6669;42.678;23.332;2022-10-18T09:51:44;6.15;;;4.82;;
13208;SDS011;6669;42.678;23.332;2022-10-18T09:54:17;4.53;;;3.83;;
13208;SDS011;6669;42.678;23.332;2022-10-18T09:56:53;6.60;;;3.80;;
13208;SDS011;6669;42.678;23.332;2022-10-18T09:59:30;4.88;;;4.10;;
13208;SDS011;6669;42.678;23.332;2022-10-18T10:02:02;5.18;;;3.60;;
13208;SDS011;6669;42.678;23.332;2022-10-18T10:04:32;4.90;;;4.07;;
13208;SDS011;6669;42.678;23.332;2022-10-18T10:07:00;3.70;;;3.40;;
13208;SDS011;6669;42.678;23.332;2022-10-18T10:09:29;5.63;;;3.30;;
13208;SDS011;6669;42.678;23.332;2022-10-18T10:11:58;3.53;;;2.97;;
13208;SDS011;6669;42.678;23.332;2022-10-18T10:14:28;2.97;;;2.50;;
13208;SDS011;6669;42.678;23.332;2022-10-18T10:16:57;3.20;;;2.83;;
13208;SDS011;6669;42.678;23.332;2022-10-18T10:19:29;5.03;;;3.22;;
13208;SDS011;6669;42.678;23.332;2022-10-18T10:22:03;3.33;;;2.58;;
13208;SDS011;6669;42.678;23.332;2022-10-18T10:24:34;3.60;;;2.35;;
13208;SDS011;6669;42.678;23.332;2022-10-18T10:27:13;2.70;;;2.50;;
13208;SDS011;6669;42.678;23.332;2022-10-18T10:30:00;3.88;;;2.55;;
13208;SDS011;6669;42.678;23.332;2022-10-18T10:32:43;5.10;;;1.88;;
13208;SDS011;6669;42.678;23.332;2022-10-18T10:35:21;2.33;;;2.10;;
13208;SDS011;6669;42.678;23.332;2022-10-18T10:38:21;3.47;;;2.92;;
13208;SDS011;6669;42.678;23.332;2022-10-18T10:40:50;4.88;;;3.58;;
13208;SDS011;6669;42.678;23.332;2022-10-18T10:43:20;4.43;;;3.08;;
13208;SDS011;6669;42.678;23.332;2022-10-18T10:46:08;4.35;;;2.80;;
13208;SDS011;6669;42.678;23.332;2022-10-18T10:48:40;3.80;;;3.20;;
13208;SDS011;6669;42.678;23.332;2022-10-18T10:51:15;3.88;;;3.10;;
13208;SDS011;6669;42.678;23.332;2022-10-18T10:53:46;5.15;;;3.95;;
13208;SDS011;6669;42.678;23.332;2022-10-18T10:56:23;4.43;;;3.42;;
13208;SDS011;6669;42.678;23.332;2022-10-18T10:58:53;5.22;;;3.53;;
13208;SDS011;6669;42.678;23.332;2022-10-18T11:01:26;3.25;;;2.85;;
13208;SDS011;6669;42.678;23.332;2022-10-18T11:03:59;6.65;;;3.55;;
13208;SDS011;6669;42.678;23.332;2022-10-18T11:09:18;1.75;;;1.65;;
13208;SDS011;6669;42.678;23.332;2022-10-18T11:11:59;1.52;;;1.42;;
13208;SDS011;6669;42.678;23.332;2022-10-18T11:14:32;1.70;;;1.60;;
13208;SDS011;6669;42.678;23.332;2022-10-18T11:17:06;1.88;;;1.70;;
13208;SDS011;6669;42.678;23.332;2022-10-18T11:19:43;2.00;;;1.38;;
13208;SDS011;6669;42.678;23.332;2022-10-18T11:22:24;4.30;;;1.60;;
13208;SDS011;6669;42.678;23.332;2022-10-18T11:24:55;1.95;;;1.42;;
13208;SDS011;6669;42.678;23.332;2022-10-18T11:27:24;1.50;;;1.40;;
13208;SDS011;6669;42.678;23.332;2022-10-18T11:30:01;2.50;;;1.58;;
13208;SDS011;6669;42.678;23.332;2022-10-18T11:32:40;2.70;;;1.20;;
13208;SDS011;6669;42.678;23.332;2022-10-18T11:35:22;1.50;;;1.40;;
13208;SDS011;6669;42.678;23.332;2022-10-18T11:38:04;1.45;;;1.35;;
13208;SDS011;6669;42.678;23.332;2022-10-18T11:40:45;1.60;;;1.50;;
13208;SDS011;6669;42.678;23.332;2022-10-18T11:43:22;1.73;;;1.52;;
13208;SDS011;6669;42.678;23.332;2022-10-18T11:46:15;1.55;;;1.33;;
13208;SDS011;6669;42.678;23.332;2022-10-18T11:48:54;1.98;;;1.40;;
13208;SDS011;6669;42.678;23.332;2022-10-18T11:51:40;1.30;;;1.20;;
13208;SDS011;6669;42.678;23.332;2022-10-18T11:54:42;1.25;;;1.15;;
13208;SDS011;6669;42.678;23.332;2022-10-18T11:57:45;1.80;;;1.70;;
13208;SDS011;6669;42.678;23.332;2022-10-18T12:00:26;1.15;;;1.05;;
13208;SDS011;6669;42.678;23.332;2022-10-18T12:03:13;1.52;;;1.30;;
13208;SDS011;6669;42.678;23.332;2022-10-18T12:05:55;1.30;;;1.20;;
13208;SDS011;6669;42.678;23.332;2022-10-18T12:08:29;1.35;;;1.00;;
13208;SDS011;6669;42.678;23.332;2022-10-18T12:11:07;1.20;;;1.10;;
13208;SDS011;6669;42.678;23.332;2022-10-18T12:13:43;14.80;;;1.52;;
13208;SDS011;6669;42.678;23.332;2022-10-18T12:16:15;1.27;;;1.10;;
13208;SDS011;6669;42.678;23.332;2022-10-18T12:19:06;1.13;;;1.10;;
13208;SDS011;6669;42.678;23.332;2022-10-18T12:21:39;6.70;;;3.05;;
13208;SDS011;6669;42.678;23.332;2022-10-18T12:24:10;1.52;;;1.33;;
13208;SDS011;6669;42.678;23.332;2022-10-18T12:26:45;1.20;;;1.08;;
13208;SDS011;6669;42.678;23.332;2022-10-18T12:29:17;1.70;;;1.60;;
13208;SDS011;6669;42.678;23.332;2022-10-18T12:31:53;2.35;;;1.20;;
13208;SDS011;6669;42.678;23.332;2022-10-18T12:34:29;1.40;;;1.00;;
13208;SDS011;6669;42.678;23.332;2022-10-18T12:37:08;1.10;;;1.08;;
13208;SDS011;6669;42.678;23.332;2022-10-18T12:39:52;3.67;;;1.10;;
13208;SDS011;6669;42.678;23.332;2022-10-18T12:42:40;1.10;;;1.00;;
13208;SDS011;6669;42.678;23.332;2022-10-18T12:47:58;1.80;;;1.70;;
13208;SDS011;6669;42.678;23.332;2022-10-18T12:50:29;1.27;;;1.15;;
13208;SDS011;6669;42.678;23.332;2022-10-18T12:53:00;0.85;;;0.85;;
13208;SDS011;6669;42.678;23.332;2022-10-18T12:55:34;3.72;;;1.05;;
13208;SDS011;6669;42.678;23.332;2022-10-18T13:01:05;0.95;;;0.88;;
13208;SDS011;6669;42.678;23.332;2022-10-18T13:03:38;0.60;;;0.60;;
13208;SDS011;6669;42.678;23.332;2022-10-18T13:06:08;1.38;;;0.80;;
13208;SDS011;6669;42.678;23.332;2022-10-18T13:08:37;0.60;;;0.60;;
13208;SDS011;6669;42.678;23.332;2022-10-18T13:11:27;0.60;;;0.60;;
13208;SDS011;6669;42.678;23.332;2022-10-18T13:17:32;0.52;;;0.52;;
13208;SDS011;6669;42.678;23.332;2022-10-18T13:20:10;1.80;;;0.93;;
13208;SDS011;6669;42.678;23.332;2022-10-18T13:22:58;0.80;;;0.80;;
13208;SDS011;6669;42.678;23.332;2022-10-18T13:25:34;0.65;;;0.65;;
13208;SDS011;6669;42.678;23.332;2022-10-18T13:28:17;0.52;;;0.52;;
13208;SDS011;6669;42.678;23.332;2022-10-18T13:30:56;0.90;;;0.50;;
13208;SDS011;6669;42.678;23.332;2022-10-18T13:33:32;2.55;;;1.08;;
13208;SDS011;6669;42.678;23.332;2022-10-18T13:36:04;0.77;;;0.75;;
13208;SDS011;6669;42.678;23.332;2022-10-18T13:38:59;3.85;;;0.80;;
13208;SDS011;6669;42.678;23.332;2022-10-18T13:41:29;1.10;;;0.90;;
13208;SDS011;6669;42.678;23.332;2022-10-18T13:50:19;1.08;;;0.98;;
13208;SDS011;6669;42.678;23.332;2022-10-18T13:53:01;0.77;;;0.77;;
13208;SDS011;6669;42.678;23.332;2022-10-18T13:55:53;0.93;;;0.88;;
13208;SDS011;6669;42.678;23.332;2022-10-18T13:58:35;1.20;;;0.93;;
13208;SDS011;6669;42.678;23.332;2022-10-18T14:01:26;1.17;;;1.08;;
13208;SDS011;6669;42.678;23.332;2022-10-18T14:07:14;2.33;;;0.88;;
13208;SDS011;6669;42.678;23.332;2022-10-18T14:09:45;0.80;;;0.80;;
13208;SDS011;6669;42.678;23.332;2022-10-18T14:12:22;1.02;;;1.00;;
13208;SDS011;6669;42.678;23.332;2022-10-18T14:14:57;1.30;;;1.08;;
13208;SDS011;6669;42.678;23.332;2022-10-18T14:17:35;1.00;;;0.77;;
13208;SDS011;6669;42.678;23.332;2022-10-18T14:20:17;0.77;;;0.77;;
13208;SDS011;6669;42.678;23.332;2022-10-18T14:22:56;5.85;;;3.80;;
13208;SDS011;6669;42.678;23.332;2022-10-18T14:25:29;1.10;;;1.00;;
13208;SDS011;6669;42.678;23.332;2022-10-18T14:28:04;1.00;;;0.88;;
13208;SDS011;6669;42.678;23.332;2022-10-18T14:30:49;1.20;;;0.98;;
13208;SDS011;6669;42.678;23.332;2022-10-18T14:33:23;2.13;;;0.80;;
13208;SDS011;6669;42.678;23.332;2022-10-18T14:36:04;0.77;;;0.77;;
13208;SDS011;6669;42.678;23.332;2022-10-18T14:38:44;1.20;;;1.10;;
13208;SDS011;6669;42.678;23.332;2022-10-18T14:41:15;1.17;;;1.08;;
13208;SDS011;6669;42.678;23.332;2022-10-18T14:43:46;0.80;;;0.80;;
13208;SDS011;6669;42.678;23.332;2022-10-18T14:46:16;1.50;;;1.13;;
13208;SDS011;6669;42.678;23.332;2022-10-18T14:48:54;1.27;;;1.10;;
13208;SDS011;6669;42.678;23.332;2022-10-18T14:51:25;1.10;;;1.00;;
13208;SDS011;6669;42.678;23.332;2022-10-18T14:53:57;1.05;;;1.00;;
13208;SDS011;6669;42.678;23.332;2022-10-18T14:56:30;0.88;;;0.88;;
13208;SDS011;6669;42.678;23.332;2022-10-18T14:59:04;1.02;;;1.00;;
13208;SDS011;6669;42.678;23.332;2022-10-18T15:01:49;0.98;;;0.98;;
13208;SDS011;6669;42.678;23.332;2022-10-18T15:04:22;1.55;;;1.30;;
13208;SDS011;6669;42.678;23.332;2022-10-18T15:07:01;0.88;;;0.85;;
13208;SDS011;6669;42.678;23.332;2022-10-18T15:09:31;2.88;;;1.13;;
13208;SDS011;6669;42.678;23.332;2022-10-18T15:12:02;4.63;;;1.55;;
13208;SDS011;6669;42.678;23.332;2022-10-18T15:14:33;1.95;;;1.42;;
13208;SDS011;6669;42.678;23.332;2022-10-18T15:17:06;1.58;;;1.48;;
13208;SDS011;6669;42.678;23.332;2022-10-18T15:19:51;2.03;;;1.30;;
13208;SDS011;6669;42.678;23.332;2022-10-18T15:22:28;1.35;;;1.25;;
13208;SDS011;6669;42.678;23.332;2022-10-18T15:25:04;1.52;;;1.40;;
13208;SDS011;6669;42.678;23.332;2022-10-18T15:27:40;1.70;;;1.60;;
13208;SDS011;6669;42.678;23.332;2022-10-18T15:30:14;1.25;;;1.15;;
13208;SDS011;6669;42.678;23.332;2022-10-18T15:32:46;1.80;;;1.67;;
13208;SDS011;6669;42.678;23.332;2022-10-18T15:35:18;2.08;;;1.70;;
13208;SDS011;6669;42.678;23.332;2022-10-18T15:37:53;2.13;;;1.65;;
13208;SDS011;6669;42.678;23.332;2022-10-18T15:40:36;4.05;;;2.38;;
13208;SDS011;6669;42.678;23.332;2022-10-18T15:43:34;2.15;;;1.80;;
13208;SDS011;6669;42.678;23.332;2022-10-18T15:46:15;6.20;;;2.20;;
13208;SDS011;6669;42.678;23.332;2022-10-18T15:48:56;2.78;;;2.33;;